Time;durP1;ratioP1;P1;durP2;ratioP2;P2;SDS_P1;SDS_P2;PMS_P1;PMS_P2;Temp;Humidity;BMP_temperature;BMP_pressure;BME280_temperature;BME280_humidity;BME280_pressure;Samples;Min_cycle;Max_cycle;Signal;HPM_P1;HPM_P2
2023/12/14 00:01:40;;;;;;;18.17;13.53;;;;;;;;;;6303880;28;20207;-60
2023/12/14 00:04:41;;;;;;;23.10;13.30;;;;;;;;;;6284214;28;20207;-60
2023/12/14 00:07:42;;;;;;;21.23;14.40;;;;;;;;;;6284162;28;20219;-60
2023/12/14 00:10:43;;;;;;;19.37;13.23;;;;;;;;;;6284942;28;20279;-60
2023/12/14 00:13:44;;;;;;;23.57;14.10;;;;;;;;;;6288244;28;20192;-60
2023/12/14 00:16:45;;;;;;;21.40;14.60;;;;;;;;;;6294181;28;20262;-62
2023/12/14 00:19:46;;;;;;;16.20;12.13;;;;;;;;;;6287648;28;20195;-61
2023/12/14 00:22:47;;;;;;;18.70;13.47;;;;;;;;;;6290797;28;20216;-61
2023/12/14 00:25:48;;;;;;;20.17;13.50;;;;;;;;;;6284401;28;20184;-61
2023/12/14 00:28:49;;;;;;;22.03;14.87;;;;;;;;;;6305498;28;20184;-60
2023/12/14 00:31:51;;;;;;;15.10;12.33;;;;;;;;;;6292664;28;20192;-60
2023/12/14 00:34:52;;;;;;;20.50;14.40;;;;;;;;;;6311829;28;20241;-60
2023/12/14 00:37:53;;;;;;;17.20;14.13;;;;;;;;;;6283873;28;20200;-60
2023/12/14 00:40:54;;;;;;;22.67;14.33;;;;;;;;;;6292453;28;20199;-60
2023/12/14 00:43:55;;;;;;;19.23;14.30;;;;;;;;;;6293793;28;20238;-61
2023/12/14 00:46:58;;;;;;;15.43;12.63;;;;;;;;;;6304195;28;20188;-62
2023/12/14 00:49:59;;;;;;;21.33;15.00;;;;;;;;;;6292724;28;20195;-60
2023/12/14 00:53:00;;;;;;;14.37;12.13;;;;;;;;;;6285569;28;20192;-61
2023/12/14 00:56:01;;;;;;;17.13;12.33;;;;;;;;;;6292796;28;20200;-61
2023/12/14 00:59:02;;;;;;;17.50;12.63;;;;;;;;;;6299943;28;20301;-61
2023/12/14 01:02:03;;;;;;;18.10;12.00;;;;;;;;;;6304481;28;20291;-61
2023/12/14 01:05:04;;;;;;;36.27;17.07;;;;;;;;;;6294570;28;20188;-61
2023/12/14 01:08:06;;;;;;;18.33;13.50;;;;;;;;;;6305997;28;20193;-61
2023/12/14 01:11:07;;;;;;;19.07;13.07;;;;;;;;;;6297673;28;20192;-61
2023/12/14 01:14:08;;;;;;;23.77;14.87;;;;;;;;;;6286795;28;20205;-61
2023/12/14 01:17:09;;;;;;;33.10;15.20;;;;;;;;;;6314505;28;20193;-61
2023/12/14 01:20:11;;;;;;;22.20;14.27;;;;;;;;;;6305697;28;20188;-61
2023/12/14 01:23:12;;;;;;;20.17;14.00;;;;;;;;;;6303157;28;20247;-61
2023/12/14 01:26:13;;;;;;;20.33;13.57;;;;;;;;;;6289303;28;20188;-61
2023/12/14 01:29:14;;;;;;;18.20;12.90;;;;;;;;;;6326705;28;20241;-61
2023/12/14 01:32:15;;;;;;;17.17;11.87;;;;;;;;;;6293955;28;20191;-61
2023/12/14 01:35:16;;;;;;;15.93;11.83;;;;;;;;;;6304312;28;20195;-61
2023/12/14 01:38:17;;;;;;;16.63;11.60;;;;;;;;;;6283305;28;20226;-61
2023/12/14 01:41:18;;;;;;;12.30;9.73;;;;;;;;;;6299493;28;20255;-61
2023/12/14 01:44:19;;;;;;;19.33;12.03;;;;;;;;;;6309502;28;20299;-61
2023/12/14 01:47:20;;;;;;;17.67;12.20;;;;;;;;;;6306540;28;20185;-61
2023/12/14 01:50:21;;;;;;;18.53;11.90;;;;;;;;;;6299969;28;20223;-61
2023/12/14 01:53:22;;;;;;;23.63;14.30;;;;;;;;;;6304777;28;20205;-61
2023/12/14 01:56:23;;;;;;;15.73;10.70;;;;;;;;;;6298360;28;20187;-61
2023/12/14 01:59:24;;;;;;;55.70;18.00;;;;;;;;;;6307383;28;20196;-61
2023/12/14 02:02:26;;;;;;;17.03;11.57;;;;;;;;;;6288280;28;20221;-61
2023/12/14 02:05:27;;;;;;;16.93;11.60;;;;;;;;;;6298756;28;20230;-61
2023/12/14 02:08:29;;;;;;;17.40;11.10;;;;;;;;;;6315656;28;20193;-61
2023/12/14 02:11:30;;;;;;;18.47;11.80;;;;;;;;;;6303914;28;20209;-61
2023/12/14 02:14:31;;;;;;;21.97;12.17;;;;;;;;;;6306293;28;20223;-61
2023/12/14 02:17:32;;;;;;;19.00;12.83;;;;;;;;;;6285301;28;20260;-61
2023/12/14 02:20:33;;;;;;;15.97;11.43;;;;;;;;;;6287532;28;20199;-61
2023/12/14 02:23:34;;;;;;;17.50;11.90;;;;;;;;;;6297721;28;20216;-61
2023/12/14 02:26:35;;;;;;;15.73;11.07;;;;;;;;;;6286734;28;20215;-61
2023/12/14 02:29:36;;;;;;;16.40;10.77;;;;;;;;;;6294695;28;20238;-61
2023/12/14 02:32:38;;;;;;;14.70;10.97;;;;;;;;;;6301441;28;20199;-61
2023/12/14 02:35:39;;;;;;;15.87;11.20;;;;;;;;;;6300743;28;20202;-61
2023/12/14 02:38:40;;;;;;;16.33;11.20;;;;;;;;;;6291963;28;20214;-61
2023/12/14 02:41:41;;;;;;;18.47;10.90;;;;;;;;;;6296587;28;20239;-61
2023/12/14 02:44:42;;;;;;;15.20;10.67;;;;;;;;;;6281225;28;20243;-61
2023/12/14 02:47:43;;;;;;;21.93;11.47;;;;;;;;;;6322315;28;20191;-61
2023/12/14 02:50:44;;;;;;;19.77;12.30;;;;;;;;;;6286402;28;20222;-61
2023/12/14 02:53:45;;;;;;;17.43;10.17;;;;;;;;;;6302984;28;20188;-61
2023/12/14 02:56:46;;;;;;;17.97;11.00;;;;;;;;;;6281294;28;20264;-61
2023/12/14 02:59:47;;;;;;;13.73;9.90;;;;;;;;;;6300810;28;20198;-61
2023/12/14 03:02:48;;;;;;;14.30;10.03;;;;;;;;;;6280713;28;20261;-61
2023/12/14 03:05:49;;;;;;;18.37;11.70;;;;;;;;;;6303107;28;20189;-61
2023/12/14 03:08:50;;;;;;;15.77;10.83;;;;;;;;;;6300355;28;20199;-61
2023/12/14 03:11:51;;;;;;;18.17;10.20;;;;;;;;;;6290544;28;20187;-61
2023/12/14 03:14:52;;;;;;;14.83;10.13;;;;;;;;;;6293732;28;20275;-61
2023/12/14 03:17:53;;;;;;;17.40;11.33;;;;;;;;;;6288807;28;20191;-61
2023/12/14 03:20:54;;;;;;;16.20;10.27;;;;;;;;;;6291595;28;20195;-61
2023/12/14 03:23:56;;;;;;;17.43;11.20;;;;;;;;;;6292820;28;20192;-61
2023/12/14 03:26:57;;;;;;;18.53;10.83;;;;;;;;;;6284559;28;20223;-61
2023/12/14 03:29:58;;;;;;;13.23;9.17;;;;;;;;;;6303389;28;20245;-61
2023/12/14 03:32:59;;;;;;;20.83;10.13;;;;;;;;;;6287364;28;20215;-61
2023/12/14 03:36:00;;;;;;;30.63;12.80;;;;;;;;;;6297725;28;20222;-61
2023/12/14 03:39:01;;;;;;;14.50;9.67;;;;;;;;;;6299223;28;20193;-61
2023/12/14 03:42:02;;;;;;;14.80;9.70;;;;;;;;;;6282484;28;20226;-61
2023/12/14 03:45:04;;;;;;;13.83;9.70;;;;;;;;;;6282069;28;20281;-61
2023/12/14 03:48:05;;;;;;;18.47;10.77;;;;;;;;;;6289158;28;20230;-61
2023/12/14 03:51:06;;;;;;;18.97;10.00;;;;;;;;;;6297867;28;20203;-61
2023/12/14 03:54:07;;;;;;;17.30;10.93;;;;;;;;;;6298224;28;20195;-61
2023/12/14 03:57:08;;;;;;;14.97;9.33;;;;;;;;;;6315817;28;20263;-61
2023/12/14 04:00:12;;;;;;;14.40;9.27;;;;;;;;;;6287786;28;20209;-61
2023/12/14 04:03:13;;;;;;;14.07;9.67;;;;;;;;;;6302037;28;20203;-61
2023/12/14 04:06:15;;;;;;;15.87;9.80;;;;;;;;;;6285712;28;20231;-61
2023/12/14 04:09:15;;;;;;;11.60;8.90;;;3.90;99.90;;;;;;6311956;28;20187;-61
2023/12/14 04:12:16;;;;;;;13.03;8.27;;;3.70;99.90;;;;;;6273865;28;20192;-61
2023/12/14 04:15:17;;;;;;;11.57;8.70;;;3.70;99.90;;;;;;6292793;28;20192;-61
2023/12/14 04:18:17;;;;;;;22.23;10.53;;;3.70;99.90;;;;;;6272714;28;20236;-61
2023/12/14 04:21:18;;;;;;;15.50;8.80;;;3.70;99.90;;;;;;6289700;28;20252;-61
2023/12/14 04:24:19;;;;;;;11.57;9.23;;;3.70;99.90;;;;;;6270300;28;20193;-61
2023/12/14 04:27:20;;;;;;;12.60;8.87;;;;;;;;;;6293240;28;20191;-61
2023/12/14 04:30:21;;;;;;;11.80;8.03;;;;;;;;;;6288390;28;20195;-61
2023/12/14 04:33:22;;;;;;;18.40;9.43;;;;;;;;;;6294953;28;20197;-61
2023/12/14 04:36:23;;;;;;;14.87;8.20;;;;;;;;;;6282426;28;20193;-61
2023/12/14 04:39:25;;;;;;;10.53;8.00;;;;;;;;;;6311914;28;20199;-61
2023/12/14 04:42:26;;;;;;;11.87;8.23;;;;;;;;;;6276086;28;20204;-61
2023/12/14 04:45:27;;;;;;;10.77;8.37;;;;;;;;;;6286004;28;20258;-61
2023/12/14 04:48:28;;;;;;;11.57;8.47;;;;;;;;;;6300109;28;20200;-61
2023/12/14 04:51:29;;;;;;;12.77;7.97;;;;;;;;;;6284460;28;20197;-61
2023/12/14 04:54:30;;;;;;;14.50;8.87;;;;;;;;;;6268379;28;20219;-61
2023/12/14 04:57:31;;;;;;;19.90;8.53;;;;;;;;;;6286636;28;20250;-61
2023/12/14 05:00:32;;;;;;;16.80;8.13;;;;;;;;;;6287747;28;20200;-61
2023/12/14 05:03:34;;;;;;;10.53;7.63;;;;;;;;;;6269944;28;20277;-61
2023/12/14 05:06:35;;;;;;;10.07;7.27;;;;;;;;;;6293731;28;20270;-63
2023/12/14 05:09:36;;;;;;;11.53;7.23;;;;;;;;;;6293580;28;20195;-61
2023/12/14 05:12:38;;;;;;;11.40;6.80;;;;;;;;;;6300557;28;20203;-62
2023/12/14 05:15:39;;;;;;;14.50;8.27;;;;;;;;;;6281847;28;20251;-61
2023/12/14 05:18:40;;;;;;;11.33;7.77;;;;;;;;;;6284748;28;20192;-61
2023/12/14 05:21:41;;;;;;;13.63;7.77;;;;;;;;;;6283352;28;20222;-61
2023/12/14 05:24:42;;;;;;;12.13;6.93;;;;;;;;;;6270773;28;20197;-62
2023/12/14 05:27:43;;;;;;;11.73;6.83;;;;;;;;;;6273830;28;20219;-62
2023/12/14 05:30:44;;;;;;;9.80;7.33;;;;;;;;;;6275199;28;20271;-62
2023/12/14 05:33:45;;;;;;;11.43;6.90;;;;;;;;;;6279387;28;20196;-62
2023/12/14 05:36:52;;;;;;;12.27;7.43;;;;;;;;;;6287098;28;20192;-62
2023/12/14 05:39:53;;;;;;;10.47;6.83;;;;;;;;;;6277720;28;20205;-62
2023/12/14 05:42:54;;;;;;;8.57;6.17;;;;;;;;;;6269567;28;20204;-62
2023/12/14 05:45:55;;;;;;;8.57;6.53;;;;;;;;;;6300818;28;20250;-62
2023/12/14 05:48:56;;;;;;;7.87;6.37;;;;;;;;;;6281050;28;20200;-62
2023/12/14 05:51:59;;;;;;;9.60;6.27;;;;;;;;;;6279379;28;20202;-62
2023/12/14 05:55:00;;;;;;;11.73;6.80;;;;;;;;;;6308483;28;20192;-62
2023/12/14 05:58:01;;;;;;;7.87;6.67;;;;;;;;;;6279605;28;20192;-62
2023/12/14 06:01:02;;;;;;;9.50;6.33;;;;;;;;;;6269511;28;20208;-62
2023/12/14 06:04:03;;;;;;;11.30;7.80;;;;;;;;;;6293287;28;20199;-62
2023/12/14 06:07:04;;;;;;;11.27;6.87;;;;;;;;;;6287557;28;20211;-62
2023/12/14 06:10:06;;;;;;;9.63;5.70;;;;;;;;;;6286392;28;20196;-62
2023/12/14 06:13:07;;;;;;;10.87;7.37;;;;;;;;;;6304296;28;20185;-62
2023/12/14 06:16:12;;;;;;;10.03;6.43;;;;;;;;;;6286205;28;20187;-62
2023/12/14 06:19:13;;;;;;;11.43;6.90;;;;;;;;;;6268131;28;20190;-62
2023/12/14 06:22:14;;;;;;;8.30;6.40;;;;;;;;;;6290444;28;20215;-62
2023/12/14 06:25:15;;;;;;;15.00;7.00;;;;;;;;;;6271881;28;20196;-62
2023/12/14 06:28:16;;;;;;;9.20;6.27;;;;;;;;;;6324862;28;20295;-62
2023/12/14 06:31:21;;;;;;;8.53;6.53;;;;;;;;;;6306059;28;20656;-62
2023/12/14 06:34:22;;;;;;;6.97;5.73;;;;;;;;;;6306593;28;20195;-62
2023/12/14 06:37:23;;;;;;;9.37;6.57;;;;;;;;;;6284712;28;20191;-62
2023/12/14 06:40:24;;;;;;;11.27;7.33;;;;;;;;;;6283646;28;20197;-62
2023/12/14 06:43:25;;;;;;;7.87;6.33;;;;;;;;;;6274982;28;20244;-63
2023/12/14 06:46:26;;;;;;;10.23;7.33;;;;;;;;;;6279793;28;20200;-62
2023/12/14 06:49:27;;;;;;;7.00;6.20;;;;;;;;;;6314304;28;20177;-62
2023/12/14 06:52:29;;;;;;;9.20;6.23;;;;;;;;;;6300429;28;20180;-62
2023/12/14 06:55:30;;;;;;;8.00;6.20;;;;;;;;;;6270330;28;20196;-62
2023/12/14 06:58:31;;;;;;;14.33;7.40;;;;;;;;;;6306525;28;20203;-62
2023/12/14 07:01:32;;;;;;;11.07;7.13;;;;;;;;;;6281057;28;20220;-62
2023/12/14 07:04:33;;;;;;;12.57;7.27;;;;;;;;;;6279019;28;20203;-62
2023/12/14 07:07:34;;;;;;;8.17;6.50;;;;;;;;;;6280422;28;20279;-62
2023/12/14 07:10:35;;;;;;;8.37;7.07;;;;;;;;;;6296881;28;20239;-62
2023/12/14 07:13:36;;;;;;;12.33;7.67;;;;;;;;;;6293588;28;20245;-62
2023/12/14 07:16:37;;;;;;;11.53;7.33;;;;;;;;;;6272333;28;20192;-62
2023/12/14 07:19:38;;;;;;;8.37;6.43;;;;;;;;;;6282512;28;20196;-62
2023/12/14 07:22:39;;;;;;;10.77;7.17;;;;;;;;;;6277424;28;20215;-62
2023/12/14 07:25:40;;;;;;;8.00;6.60;;;;;;;;;;6277237;28;20200;-62
2023/12/14 07:28:41;;;;;;;13.23;7.23;;;;;;;;;;6285505;28;20219;-62
2023/12/14 07:31:42;;;;;;;11.73;8.13;;;;;;;;;;6281927;28;20283;-62
2023/12/14 07:34:44;;;;;;;9.50;7.67;;;;;;;;;;6275121;28;20200;-62
2023/12/14 07:37:45;;;;;;;11.83;7.33;;;;;;;;;;6291985;28;20245;-62
2023/12/14 07:40:46;;;;;;;13.50;8.57;;;;;;;;;;6278949;28;20202;-62
2023/12/14 07:43:47;;;;;;;13.73;8.03;;;3.70;99.90;;;;;;6303587;28;20227;-62
2023/12/14 07:46:48;;;;;;;12.43;7.60;;;4.10;99.90;;;;;;6270854;28;20192;-62
2023/12/14 07:49:48;;;;;;;11.67;7.47;;;4.20;99.90;;;;;;6280003;28;20197;-62
2023/12/14 07:52:49;;;;;;;11.37;7.43;;;4.20;99.90;;;;;;6275929;28;20188;-62
2023/12/14 07:55:50;;;;;;;10.23;6.77;;;4.20;99.90;;;;;;6272516;28;20265;-62
2023/12/14 07:58:51;;;;;;;14.90;7.50;;;4.30;99.90;;;;;;6265618;28;20192;-62
2023/12/14 08:01:51;;;;;;;8.23;6.47;;;4.30;99.90;;;;;;6280142;28;20220;-62
2023/12/14 08:04:52;;;;;;;14.70;7.47;;;4.30;99.90;;;;;;6268824;28;20215;-62
2023/12/14 08:07:53;;;;;;;13.80;7.70;;;;;;;;;;6270750;28;20191;-62
2023/12/14 08:10:54;;;;;;;8.93;6.90;;;;;;;;;;6288081;28;20189;-62
2023/12/14 08:13:55;;;;;;;11.07;7.50;;;;;;;;;;6283738;28;20189;-62
2023/12/14 08:16:56;;;;;;;11.73;8.20;;;4.30;99.90;;;;;;6283645;28;20192;-62
2023/12/14 08:19:57;;;;;;;13.23;9.13;;;4.40;99.90;;;;;;6266180;28;20199;-62
2023/12/14 08:22:58;;;;;;;10.23;7.77;;;4.50;99.90;;;;;;6269477;28;20216;-62
2023/12/14 08:25:59;;;;;;;11.27;6.53;;;4.50;99.90;;;;;;6287635;28;20189;-62
2023/12/14 08:28:59;;;;;;;9.13;6.40;;;4.50;99.90;;;;;;6267587;28;20274;-62
2023/12/14 08:32:00;;;;;;;10.63;5.90;;;4.50;99.90;;;;;;6270377;28;20197;-62
2023/12/14 08:35:01;;;;;;;10.97;6.50;;;4.50;99.90;;;;;;6261487;28;20188;-62
2023/12/14 08:38:02;;;;;;;6.77;5.60;;;4.60;99.90;;;;;;6282373;28;20234;-62
2023/12/14 08:41:02;;;;;;;7.30;5.77;;;4.60;99.90;;;;;;6258878;28;20203;-62
2023/12/14 08:44:04;;;;;;;7.53;6.17;;;;;;;;;;6269123;28;20604;-62
2023/12/14 08:47:05;;;;;;;7.43;5.47;;;;;;;;;;6256400;28;20213;-62
2023/12/14 08:50:07;;;;;;;7.40;5.50;;;;;;;;;;6252911;28;20186;-62
2023/12/14 08:53:08;;;;;;;7.37;5.50;;;;;;;;;;6255888;28;20190;-62
2023/12/14 08:56:09;;;;;;;6.07;5.10;;;;;;;;;;6260533;28;20186;-62
2023/12/14 08:59:10;;;;;;;7.90;5.50;;;;;;;;;;6259499;28;20204;-62
2023/12/14 09:02:12;;;;;;;6.40;5.17;;;;;;;;;;6246074;28;20218;-62
2023/12/14 09:05:14;;;;;;;7.43;4.83;;;;;;;;;;6281315;28;20190;-62
2023/12/14 09:08:15;;;;;;;7.07;5.27;;;;;;;;;;6258583;28;20211;-62
2023/12/14 09:11:16;;;;;;;8.30;5.60;;;;;;;;;;6269738;28;20213;-62
2023/12/14 09:14:17;;;;;;;8.80;5.33;;;;;;;;;;6245986;28;20196;-63
2023/12/14 09:17:18;;;;;;;6.13;4.70;;;;;;;;;;6267878;28;20201;-62
2023/12/14 09:20:20;;;;;;;6.73;4.77;;;;;;;;;;6256012;28;20276;-62
2023/12/14 09:23:21;;;;;;;6.53;5.13;;;;;;;;;;6250859;28;20217;-62
2023/12/14 09:26:22;;;;;;;5.83;4.80;;;;;;;;;;6254775;28;20201;-62
2023/12/14 09:29:23;;;;;;;7.17;5.30;;;;;;;;;;6277086;28;20244;-62
2023/12/14 09:32:24;;;;;;;5.40;4.50;;;;;;;;;;6245087;28;20200;-62
2023/12/14 09:35:24;;;;;;;7.27;4.33;;;4.60;99.90;;;;;;6251396;28;20205;-62
2023/12/14 09:38:25;;;;;;;5.57;4.37;;;5.50;99.90;;;;;;6255784;28;20194;-62
2023/12/14 09:41:26;;;;;;;5.40;4.00;;;5.50;99.90;;;;;;6251650;28;20202;-62
2023/12/14 09:44:27;;;;;;;6.53;4.60;;;;;;;;;;6258686;28;20282;-62
2023/12/14 09:47:28;;;;;;;6.90;5.10;;;;;;;;;;6265320;28;20186;-62
2023/12/14 09:50:30;;;;;;;7.10;4.60;;;;;;;;;;6257549;28;20182;-62
2023/12/14 09:53:31;;;;;;;10.00;4.60;;;5.60;99.90;;;;;;6276755;28;20195;-62
2023/12/14 09:56:32;;;;;;;5.60;4.57;;;5.90;99.90;;;;;;6248980;28;20197;-62
2023/12/14 09:59:32;;;;;;;4.07;3.67;;;5.80;99.90;;;;;;6270466;28;20201;-62
2023/12/14 10:02:33;;;;;;;5.07;4.37;;;5.70;99.90;;;;;;6249795;28;20219;-62
2023/12/14 10:05:34;;;;;;;5.27;3.97;;;5.70;99.90;;;;;;6239335;28;20189;-62
2023/12/14 10:08:34;;;;;;;6.70;4.23;;;5.90;99.90;;;;;;6245838;28;20201;-62
2023/12/14 10:11:38;;;;;;;4.77;3.67;;;5.90;99.90;;;;;;6253540;28;20244;-62
2023/12/14 10:14:39;;;;;;;7.43;3.83;;;5.90;99.90;;;;;;6272290;28;20186;-62
2023/12/14 10:17:40;;;;;;;4.27;3.87;;;6.00;99.90;;;;;;6254790;28;20201;-62
2023/12/14 10:20:40;;;;;;;4.30;3.40;;;6.10;99.90;;;;;;6263896;28;20227;-62
2023/12/14 10:23:41;;;;;;;3.97;3.20;;;6.10;99.90;;;;;;6235754;28;20206;-62
2023/12/14 10:26:44;;;;;;;6.37;4.40;;;6.30;99.90;;;;;;6273455;28;20194;-62
2023/12/14 10:29:46;;;;;;;5.37;4.23;;;6.30;99.90;;;;;;6277251;28;20191;-62
2023/12/14 10:32:50;;;;;;;4.27;3.73;;;6.30;99.90;;;;;;6235486;28;20198;-62
2023/12/14 10:35:51;;;;;;;5.07;3.80;;;6.40;99.90;;;;;;6267937;28;20194;-62
2023/12/14 10:38:53;;;;;;;6.37;4.13;;;6.50;99.90;;;;;;6261860;28;20201;-62
2023/12/14 10:41:57;;;;;;;4.10;3.70;;;6.60;99.90;;;;;;6267079;28;20210;-61
2023/12/14 10:45:02;;;;;;;5.63;3.80;;;6.60;99.90;;;;;;6272268;28;20236;-61
2023/12/14 10:48:04;;;;;;;4.47;3.60;;;;;;;;;;6273138;28;20182;-62
2023/12/14 10:51:05;;;;;;;4.47;3.23;;;;;;;;;;6267543;28;20183;-62
2023/12/14 10:54:06;;;;;;;5.90;4.13;;;6.70;99.90;;;;;;6246969;28;20213;-62
2023/12/14 10:57:08;;;;;;;4.90;3.90;;;7.00;99.90;;;;;;6266854;28;20222;-62
2023/12/14 11:00:10;;;;;;;5.37;3.60;;;;;;;;;;6233779;28;20199;-62
2023/12/14 11:03:14;;;;;;;4.93;3.50;;;;;;;;;;6248024;28;20216;-62
2023/12/14 11:06:21;;;;;;;4.40;3.57;;;;;;;;;;6258645;28;20182;-62
2023/12/14 11:09:24;;;;;;;4.33;3.40;;;;;;;;;;6264248;28;20183;-62
2023/12/14 11:12:25;;;;;;;3.53;3.23;;;;;;;;;;6270524;28;20191;-62
2023/12/14 11:15:27;;;;;;;4.50;3.60;;;;;;;;;;6266270;28;20190;-62
2023/12/14 11:18:28;;;;;;;3.37;2.90;;;;;;;;;;6268381;28;20229;-62
2023/12/14 11:21:29;;;;;;;3.93;2.93;;;;;;;;;;6273480;28;20189;-62
2023/12/14 11:24:30;;;;;;;3.03;2.73;;;7.00;99.90;;;;;;6255144;28;20244;-61
2023/12/14 11:27:31;;;;;;;4.20;2.90;;;7.80;99.90;;;;;;6255674;28;20185;-61
2023/12/14 11:30:32;;;;;;;3.47;2.80;;;7.80;99.90;;;;;;6269814;28;20181;-61
2023/12/14 11:33:33;;;;;;;5.90;2.80;;;8.00;99.90;;;;;;6232648;28;20197;-61
2023/12/14 11:36:35;;;;;;;3.73;2.90;;;7.90;99.90;;;;;;6258282;28;20195;-61
2023/12/14 11:39:38;;;;;;;3.40;2.97;;;7.80;99.90;;;;;;6231271;28;20193;-61
2023/12/14 11:42:38;;;;;;;3.70;2.70;;;7.80;99.90;;;;;;6254421;28;20216;-61
2023/12/14 11:45:40;;;;;;;9.33;2.83;;;7.80;99.00;;;;;;6263807;28;20241;-62
2023/12/14 11:48:41;;;;;;;2.73;2.33;;;7.80;99.90;;;;;;6274278;28;20184;-62
2023/12/14 11:51:41;;;;;;;1.63;1.53;;;7.70;98.90;;;;;;6264576;28;20190;-61
2023/12/14 11:54:42;;;;;;;2.87;2.30;;;7.70;98.10;;;;;;6231453;28;20189;-61
2023/12/14 11:57:47;;;;;;;6.10;2.00;;;7.70;97.40;;;;;;6254944;28;20194;-62
2023/12/14 12:00:48;;;;;;;2.97;2.00;;;7.60;96.50;;;;;;6250312;28;20203;-62
2023/12/14 12:03:48;;;;;;;3.00;2.57;;;7.60;95.30;;;;;;6254376;28;20254;-62
2023/12/14 12:06:49;;;;;;;3.67;2.20;;;7.50;95.00;;;;;;6241918;28;20190;-61
2023/12/14 12:09:50;;;;;;;3.77;2.17;;;7.60;93.70;;;;;;6250496;28;20190;-62
2023/12/14 12:13:02;;;;;;;4.90;2.30;;;7.50;89.60;;;;;;6271880;28;20215;-62
2023/12/14 12:16:03;;;;;;;3.93;2.13;;;7.50;95.20;;;;;;6265188;28;20236;-62
2023/12/14 12:19:04;;;;;;;2.20;2.00;;;7.50;90.90;;;;;;6223576;28;20194;-66
2023/12/14 12:22:04;;;;;;;2.13;1.87;;;7.50;91.20;;;;;;6248088;28;20210;-65
2023/12/14 12:25:06;;;;;;;2.17;1.43;;;7.50;93.50;;;;;;6278823;28;20189;-62
2023/12/14 12:28:06;;;;;;;2.23;1.90;;;7.50;91.30;;;;;;6240168;28;20218;-62
2023/12/14 12:31:07;;;;;;;3.53;1.63;;;7.50;90.50;;;;;;6237602;28;20182;-62
2023/12/14 12:34:08;;;;;;;1.50;1.30;;;;;;;;;;6263640;28;20194;-65
2023/12/14 12:37:09;;;;;;;2.57;1.40;;;;;;;;;;6262290;28;20236;-67
2023/12/14 12:40:10;;;;;;;1.27;1.10;;;;;;;;;;6277231;28;20193;-67
2023/12/14 12:43:12;;;;;;;2.00;1.60;;;;;;;;;;6281247;28;20240;-63
2023/12/14 12:46:13;;;;;;;1.57;1.20;;;;;;;;;;6310985;28;20266;-62
2023/12/14 12:49:15;;;;;;;1.30;1.20;;;;;;;;;;6312390;28;20205;-63
2023/12/14 12:52:16;;;;;;;1.30;1.07;;;;;;;;;;6273660;28;20197;-63
2023/12/14 12:55:17;;;;;;;1.80;1.30;;;;;;;;;;6318554;28;20183;-63
2023/12/14 12:58:18;;;;;;;1.37;1.20;;;;;;;;;;6276825;28;20217;-62
2023/12/14 13:01:19;;;;;;;1.80;1.30;;;;;;;;;;6267498;28;20267;-63
2023/12/14 13:04:23;;;;;;;1.87;1.03;;;;;;;;;;6269692;28;20193;-62
2023/12/14 13:07:24;;;;;;;1.80;1.20;;;;;;;;;;6314615;28;20188;-62
2023/12/14 13:10:27;;;;;;;1.47;1.30;;;;;;;;;;6275869;28;20185;-62
2023/12/14 13:13:28;;;;;;;1.60;1.20;;;;;;;;;;6285991;28;20189;-62
2023/12/14 13:16:29;;;;;;;1.10;1.00;;;;;;;;;;6290024;28;20209;-62
2023/12/14 13:19:30;;;;;;;1.67;1.40;;;;;;;;;;6277672;28;20187;-62
2023/12/14 13:22:31;;;;;;;1.33;1.13;;;;;;;;;;6271375;28;20212;-62
2023/12/14 13:25:32;;;;;;;1.40;1.30;;;;;;;;;;6305187;28;20219;-63
2023/12/14 13:28:33;;;;;;;1.20;1.10;;;;;;;;;;6283423;28;20189;-63
2023/12/14 13:31:34;;;;;;;2.93;1.33;;;;;;;;;;6284169;28;20273;-63
2023/12/14 13:34:35;;;;;;;1.67;1.00;;;;;;;;;;6285179;28;20193;-62
2023/12/14 13:37:36;;;;;;;1.27;1.00;;;;;;;;;;6289788;28;20187;-63
2023/12/14 13:40:37;;;;;;;1.13;1.03;;;;;;;;;;6311377;28;20184;-62
2023/12/14 13:43:38;;;;;;;1.63;0.93;;;;;;;;;;6281798;28;20237;-62
2023/12/14 13:46:39;;;;;;;1.63;1.07;;;;;;;;;;6274391;28;20242;-63
2023/12/14 13:49:40;;;;;;;1.40;1.30;;;;;;;;;;6317432;28;20176;-63
2023/12/14 13:52:41;;;;;;;1.60;0.90;;;;;;;;;;6284376;28;20188;-62
2023/12/14 13:55:42;;;;;;;2.10;0.90;;;;;;;;;;6284521;28;20237;-62
2023/12/14 13:58:44;;;;;;;2.13;1.00;;;;;;;;;;6302284;28;20196;-62
2023/12/14 14:01:45;;;;;;;0.97;0.83;;;;;;;;;;6292426;28;20224;-62
2023/12/14 14:04:46;;;;;;;2.47;1.50;;;;;;;;;;6297961;28;20188;-62
2023/12/14 14:07:47;;;;;;;3.50;3.00;;;;;;;;;;6290029;28;20216;-62
2023/12/14 14:10:48;;;;;;;7.03;5.13;;;;;;;;;;6271883;28;20204;-63
2023/12/14 14:13:49;;;;;;;4.47;3.70;;;;;;;;;;6311037;28;20221;-62
2023/12/14 14:16:50;;;;;;;5.33;4.07;;;;;;;;;;6279505;28;20200;-64
2023/12/14 14:19:51;;;;;;;3.43;2.47;;;;;;;;;;6276450;28;20197;-63
2023/12/14 14:22:52;;;;;;;2.40;2.20;;;;;;;;;;6284341;28;20215;-62
2023/12/14 14:25:53;;;;;;;1.80;1.70;;;;;;;;;;6312589;28;20451;-62
2023/12/14 14:28:59;;;;;;;1.50;1.40;;;;;;;;;;6321885;28;20180;-62
2023/12/14 14:32:00;;;;;;;2.43;1.87;;;;;;;;;;6281814;28;20260;-62
2023/12/14 14:35:02;;;;;;;2.30;1.87;;;;;;;;;;6270992;28;20218;-63
2023/12/14 14:38:03;;;;;;;3.10;2.80;;;;;;;;;;6295566;28;20189;-62
2023/12/14 14:41:04;;;;;;;3.97;3.27;;;;;;;;;;6281205;28;20192;-63
2023/12/14 14:44:05;;;;;;;3.87;3.47;;;;;;;;;;6290648;28;20266;-63
2023/12/14 14:47:06;;;;;;;4.87;2.90;;;;;;;;;;6293401;28;20196;-63
2023/12/14 14:50:08;;;;;;;2.27;1.83;;;;;;;;;;6302449;28;20622;-64
2023/12/14 14:53:09;;;;;;;2.87;1.87;;;;;;;;;;6315381;28;20202;-63
2023/12/14 14:56:11;;;;;;;2.17;1.73;;;;;;;;;;6274016;28;20236;-63
2023/12/14 14:59:15;;;;;;;2.60;1.80;;;;;;;;;;6312654;28;20227;-63
2023/12/14 15:02:16;;;;;;;2.07;1.70;;;;;;;;;;6292238;28;20216;-63
2023/12/14 15:05:17;;;;;;;2.57;2.33;;;;;;;;;;6297870;28;20213;-64
2023/12/14 15:08:18;;;;;;;2.90;2.47;;;;;;;;;;6305074;28;20181;-63
2023/12/14 15:11:19;;;;;;;2.27;2.07;;;;;;;;;;6293258;28;20188;-63
2023/12/14 15:14:20;;;;;;;2.10;1.80;;;;;;;;;;6306018;28;20192;-63
2023/12/14 15:17:22;;;;;;;1.67;1.57;;;;;;;;;;6295099;28;20218;-62
2023/12/14 15:20:23;;;;;;;1.50;1.40;;;;;;;;;;6284048;28;20264;-63
2023/12/14 15:23:24;;;;;;;2.47;1.90;;;;;;;;;;6301556;28;20250;-62
2023/12/14 15:26:29;;;;;;;1.80;1.70;;;;;;;;;;6278310;28;20207;-64
2023/12/14 15:29:30;;;;;;;1.83;1.73;;;;;;;;;;6278588;28;20200;-63
2023/12/14 15:32:31;;;;;;;2.03;1.70;;;;;;;;;;6300284;28;20201;-63
2023/12/14 15:35:32;;;;;;;2.80;1.60;;;;;;;;;;6288450;28;20224;-63
2023/12/14 15:38:33;;;;;;;2.00;1.70;;;;;;;;;;6308126;28;20200;-63
2023/12/14 15:41:34;;;;;;;1.40;1.30;;;;;;;;;;6310697;28;20187;-63
2023/12/14 15:44:35;;;;;;;1.37;1.27;;;;;;;;;;6290155;28;20412;-63
2023/12/14 15:47:36;;;;;;;2.60;1.40;;;;;;;;;;6280140;28;20210;-63
2023/12/14 15:50:38;;;;;;;2.83;2.00;;;;;;;;;;6287339;28;20185;-63
2023/12/14 15:53:39;;;;;;;2.60;2.40;;;;;;;;;;6277686;28;20192;-62
2023/12/14 15:56:40;;;;;;;2.57;2.10;;;;;;;;;;6302488;28;20220;-63
2023/12/14 15:59:41;;;;;;;1.80;1.70;;;;;;;;;;6281388;28;20221;-62
2023/12/14 16:02:42;;;;;;;3.93;1.80;;;;;;;;;;6311937;28;20231;-63
2023/12/14 16:05:44;;;;;;;2.03;1.93;;;;;;;;;;6275982;28;20197;-62
2023/12/14 16:08:45;;;;;;;2.23;2.03;;;;;;;;;;6300106;28;20186;-63
2023/12/14 16:11:46;;;;;;;8.93;7.40;;;;;;;;;;6288522;28;20715;-62
2023/12/14 16:14:47;;;;;;;12.33;7.50;;;;;;;;;;6277530;28;20284;-62
2023/12/14 16:17:48;;;;;;;6.93;5.63;;;;;;;;;;6283881;28;20255;-63
2023/12/14 16:20:49;;;;;;;6.30;4.67;;;;;;;;;;6276886;28;20184;-63
2023/12/14 16:23:50;;;;;;;8.33;6.83;;;;;;;;;;6303621;28;20209;-63
2023/12/14 16:26:52;;;;;;;4.67;4.13;;;7.50;90.20;;;;;;6272171;28;20182;-63
2023/12/14 16:30:02;;;;;;;4.00;3.23;;;;;;;;;;6292240;28;20227;-63
2023/12/14 16:33:03;;;;;;;4.70;3.97;;;;;;;;;;6299438;28;20242;-63
2023/12/14 16:36:12;;;;;;;2.60;2.40;;;24.00;50.00;;;;;;6289311;28;20189;-62
2023/12/14 16:39:13;;;;;;;3.03;2.13;;;5.30;99.90;;;;;;6292603;28;20192;-62
2023/12/14 16:42:14;;;;;;;2.80;2.10;;;5.10;99.90;;;;;;6269859;28;20209;-63
2023/12/14 16:45:14;;;;;;;2.40;2.20;;;5.10;99.90;;;;;;6299078;28;20265;-63
2023/12/14 16:48:15;;;;;;;4.47;4.07;;;5.00;99.90;;;;;;6276567;28;20196;-63
2023/12/14 16:51:19;;;;;;;4.23;3.57;;;4.90;99.90;;;;;;6259635;28;20183;-62
2023/12/14 16:54:20;;;;;;;3.07;2.77;;;4.90;99.90;;;;;;6298010;28;20180;-63
2023/12/14 16:57:21;;;;;;;3.17;2.87;;;4.90;99.90;;;;;;6285886;28;20192;-63
2023/12/14 17:00:22;;;;;;;3.93;2.60;;;4.80;99.90;;;;;;6256176;28;20192;-63
2023/12/14 17:03:24;;;;;;;4.10;2.40;;;4.70;99.90;;;;;;6260269;28;20273;-63
2023/12/14 17:06:24;;;;;;;4.33;2.83;;;4.70;99.90;;;;;;6257738;28;20191;-63
2023/12/14 17:09:27;;;;;;;5.73;3.80;;;4.50;99.90;;;;;;6267141;28;20193;-63
2023/12/14 17:12:28;;;;;;;3.50;2.97;;;4.50;99.90;;;;;;6276336;28;20228;-63
2023/12/14 17:15:29;;;;;;;4.37;3.63;;;4.50;99.90;;;;;;6275549;28;20189;-63
2023/12/14 17:18:29;;;;;;;3.60;3.23;;;4.50;99.90;;;;;;6276884;28;20201;-63
2023/12/14 17:21:30;;;;;;;7.30;4.00;;;4.40;99.90;;;;;;6269240;28;20281;-63